sensor_id;sensor_type;location;lat;lon;timestamp;P1;durP1;ratioP1;P2;durP2;ratioP2
67819;SDS011;54618;52.018;5.576;2022-11-15T00:01:47;8.93;;;4.57;;
67819;SDS011;54618;52.018;5.576;2022-11-15T00:04:12;7.70;;;4.43;;
67819;SDS011;54618;52.018;5.576;2022-11-15T00:06:38;8.73;;;4.68;;
67819;SDS011;54618;52.018;5.576;2022-11-15T00:09:03;8.02;;;4.55;;
67819;SDS011;54618;52.018;5.576;2022-11-15T00:11:29;8.05;;;4.90;;
67819;SDS011;54618;52.018;5.576;2022-11-15T00:13:55;10.60;;;5.28;;
67819;SDS011;54618;52.018;5.576;2022-11-15T00:16:21;7.45;;;4.47;;
67819;SDS011;54618;52.018;5.576;2022-11-15T00:18:47;7.35;;;4.53;;
67819;SDS011;54618;52.018;5.576;2022-11-15T00:21:13;9.15;;;5.13;;
67819;SDS011;54618;52.018;5.576;2022-11-15T00:23:39;7.80;;;4.93;;
67819;SDS011;54618;52.018;5.576;2022-11-15T00:26:06;8.23;;;4.68;;
67819;SDS011;54618;52.018;5.576;2022-11-15T00:28:32;8.93;;;4.95;;
67819;SDS011;54618;52.018;5.576;2022-11-15T00:31:04;9.98;;;5.28;;
67819;SDS011;54618;52.018;5.576;2022-11-15T00:33:31;8.77;;;4.90;;
67819;SDS011;54618;52.018;5.576;2022-11-15T00:36:01;9.85;;;5.05;;
67819;SDS011;54618;52.018;5.576;2022-11-15T00:38:30;9.68;;;5.00;;
67819;SDS011;54618;52.018;5.576;2022-11-15T00:40:57;7.57;;;4.38;;
67819;SDS011;54618;52.018;5.576;2022-11-15T00:43:23;8.32;;;4.88;;
67819;SDS011;54618;52.018;5.576;2022-11-15T00:45:48;8.90;;;4.90;;
67819;SDS011;54618;52.018;5.576;2022-11-15T00:48:14;9.35;;;4.72;;
67819;SDS011;54618;52.018;5.576;2022-11-15T00:50:39;10.02;;;5.13;;
67819;SDS011;54618;52.018;5.576;2022-11-15T00:53:05;9.85;;;4.95;;
67819;SDS011;54618;52.018;5.576;2022-11-15T00:55:30;10.98;;;5.32;;
67819;SDS011;54618;52.018;5.576;2022-11-15T00:57:56;9.05;;;5.00;;
67819;SDS011;54618;52.018;5.576;2022-11-15T01:00:21;7.93;;;4.72;;
67819;SDS011;54618;52.018;5.576;2022-11-15T01:02:47;9.73;;;5.50;;
67819;SDS011;54618;52.018;5.576;2022-11-15T01:05:13;10.63;;;5.38;;
67819;SDS011;54618;52.018;5.576;2022-11-15T01:07:38;10.30;;;5.35;;
67819;SDS011;54618;52.018;5.576;2022-11-15T01:10:04;9.95;;;5.32;;
67819;SDS011;54618;52.018;5.576;2022-11-15T01:12:30;8.07;;;4.63;;
67819;SDS011;54618;52.018;5.576;2022-11-15T01:14:56;10.13;;;5.78;;
67819;SDS011;54618;52.018;5.576;2022-11-15T01:17:22;7.72;;;4.93;;
67819;SDS011;54618;52.018;5.576;2022-11-15T01:19:48;9.18;;;4.85;;
67819;SDS011;54618;52.018;5.576;2022-11-15T01:22:13;9.40;;;4.90;;
67819;SDS011;54618;52.018;5.576;2022-11-15T01:24:39;8.45;;;4.80;;
67819;SDS011;54618;52.018;5.576;2022-11-15T01:27:04;8.30;;;4.97;;
67819;SDS011;54618;52.018;5.576;2022-11-15T01:29:30;7.68;;;4.53;;
67819;SDS011;54618;52.018;5.576;2022-11-15T01:31:55;8.32;;;4.70;;
67819;SDS011;54618;52.018;5.576;2022-11-15T01:34:21;9.98;;;5.30;;
67819;SDS011;54618;52.018;5.576;2022-11-15T01:36:46;9.70;;;5.03;;
67819;SDS011;54618;52.018;5.576;2022-11-15T01:39:12;9.68;;;5.20;;
67819;SDS011;54618;52.018;5.576;2022-11-15T01:41:37;11.60;;;5.60;;
67819;SDS011;54618;52.018;5.576;2022-11-15T01:47:08;10.35;;;4.93;;
67819;SDS011;54618;52.018;5.576;2022-11-15T01:52:05;10.52;;;4.78;;
67819;SDS011;54618;52.018;5.576;2022-11-15T01:54:33;10.82;;;5.45;;
67819;SDS011;54618;52.018;5.576;2022-11-15T01:56:59;9.40;;;5.18;;
67819;SDS011;54618;52.018;5.576;2022-11-15T01:59:31;9.48;;;5.05;;
67819;SDS011;54618;52.018;5.576;2022-11-15T02:01:58;10.52;;;5.32;;
67819;SDS011;54618;52.018;5.576;2022-11-15T02:04:27;9.30;;;5.10;;
67819;SDS011;54618;52.018;5.576;2022-11-15T02:06:56;11.20;;;5.35;;
67819;SDS011;54618;52.018;5.576;2022-11-15T02:09:22;9.30;;;5.07;;
67819;SDS011;54618;52.018;5.576;2022-11-15T02:11:47;9.85;;;4.90;;
67819;SDS011;54618;52.018;5.576;2022-11-15T02:14:14;8.50;;;5.05;;
67819;SDS011;54618;52.018;5.576;2022-11-15T02:22:05;9.30;;;4.63;;
67819;SDS011;54618;52.018;5.576;2022-11-15T02:28:16;8.13;;;4.47;;
67819;SDS011;54618;52.018;5.576;2022-11-15T02:33:41;10.57;;;4.90;;
67819;SDS011;54618;52.018;5.576;2022-11-15T02:36:33;9.45;;;4.82;;
67819;SDS011;54618;52.018;5.576;2022-11-15T02:42:00;8.88;;;5.13;;
67819;SDS011;54618;52.018;5.576;2022-11-15T02:44:31;10.10;;;5.20;;
67819;SDS011;54618;52.018;5.576;2022-11-15T02:47:03;8.55;;;4.82;;
67819;SDS011;54618;52.018;5.576;2022-11-15T02:49:41;8.93;;;5.35;;
67819;SDS011;54618;52.018;5.576;2022-11-15T02:52:14;8.43;;;5.03;;
67819;SDS011;54618;52.018;5.576;2022-11-15T02:54:52;8.52;;;4.72;;
67819;SDS011;54618;52.018;5.576;2022-11-15T03:00:32;8.98;;;4.88;;
67819;SDS011;54618;52.018;5.576;2022-11-15T03:03:21;8.75;;;4.72;;
67819;SDS011;54618;52.018;5.576;2022-11-15T03:06:18;8.60;;;4.68;;
67819;SDS011;54618;52.018;5.576;2022-11-15T03:09:09;7.88;;;4.53;;
67819;SDS011;54618;52.018;5.576;2022-11-15T03:11:41;6.97;;;4.38;;
67819;SDS011;54618;52.018;5.576;2022-11-15T03:21:55;8.18;;;4.63;;
67819;SDS011;54618;52.018;5.576;2022-11-15T03:24:24;6.97;;;4.18;;
67819;SDS011;54618;52.018;5.576;2022-11-15T03:26:52;7.47;;;4.60;;
67819;SDS011;54618;52.018;5.576;2022-11-15T03:29:21;6.55;;;4.18;;
67819;SDS011;54618;52.018;5.576;2022-11-15T03:31:51;7.75;;;4.50;;
67819;SDS011;54618;52.018;5.576;2022-11-15T03:36:57;7.82;;;4.75;;
67819;SDS011;54618;52.018;5.576;2022-11-15T03:39:22;7.65;;;4.38;;
67819;SDS011;54618;52.018;5.576;2022-11-15T03:47:36;7.57;;;4.57;;
67819;SDS011;54618;52.018;5.576;2022-11-15T03:50:10;8.20;;;4.35;;
67819;SDS011;54618;52.018;5.576;2022-11-15T03:52:39;6.32;;;4.10;;
67819;SDS011;54618;52.018;5.576;2022-11-15T03:55:06;6.60;;;4.25;;
67819;SDS011;54618;52.018;5.576;2022-11-15T03:57:35;6.68;;;4.07;;
67819;SDS011;54618;52.018;5.576;2022-11-15T04:00:01;8.90;;;4.22;;
67819;SDS011;54618;52.018;5.576;2022-11-15T04:02:28;7.90;;;4.30;;
67819;SDS011;54618;52.018;5.576;2022-11-15T04:04:53;6.97;;;4.15;;
67819;SDS011;54618;52.018;5.576;2022-11-15T04:07:19;6.18;;;4.07;;
67819;SDS011;54618;52.018;5.576;2022-11-15T04:09:44;6.25;;;4.15;;
67819;SDS011;54618;52.018;5.576;2022-11-15T04:12:39;7.50;;;3.95;;
67819;SDS011;54618;52.018;5.576;2022-11-15T04:17:36;7.60;;;4.18;;
67819;SDS011;54618;52.018;5.576;2022-11-15T04:20:10;6.57;;;4.03;;
67819;SDS011;54618;52.018;5.576;2022-11-15T04:23:02;7.68;;;4.22;;
67819;SDS011;54618;52.018;5.576;2022-11-15T04:25:52;6.53;;;3.83;;
67819;SDS011;54618;52.018;5.576;2022-11-15T04:30:45;6.07;;;3.95;;
67819;SDS011;54618;52.018;5.576;2022-11-15T04:33:10;6.40;;;3.90;;
67819;SDS011;54618;52.018;5.576;2022-11-15T04:35:36;6.68;;;3.92;;
67819;SDS011;54618;52.018;5.576;2022-11-15T04:38:02;6.55;;;4.03;;
67819;SDS011;54618;52.018;5.576;2022-11-15T04:40:29;6.55;;;3.78;;
67819;SDS011;54618;52.018;5.576;2022-11-15T04:42:54;7.07;;;3.58;;
67819;SDS011;54618;52.018;5.576;2022-11-15T04:45:21;6.78;;;4.10;;
67819;SDS011;54618;52.018;5.576;2022-11-15T04:47:46;7.40;;;4.53;;
67819;SDS011;54618;52.018;5.576;2022-11-15T04:50:12;6.50;;;3.97;;
67819;SDS011;54618;52.018;5.576;2022-11-15T04:52:42;5.60;;;3.40;;
67819;SDS011;54618;52.018;5.576;2022-11-15T04:55:09;4.97;;;3.67;;
67819;SDS011;54618;52.018;5.576;2022-11-15T04:57:35;7.22;;;3.88;;
67819;SDS011;54618;52.018;5.576;2022-11-15T05:00:05;5.88;;;3.90;;
67819;SDS011;54618;52.018;5.576;2022-11-15T05:02:36;7.32;;;4.03;;
67819;SDS011;54618;52.018;5.576;2022-11-15T05:05:20;5.90;;;3.67;;
67819;SDS011;54618;52.018;5.576;2022-11-15T05:07:46;5.57;;;3.65;;
67819;SDS011;54618;52.018;5.576;2022-11-15T05:10:11;6.50;;;4.10;;
67819;SDS011;54618;52.018;5.576;2022-11-15T05:12:37;6.50;;;3.80;;
67819;SDS011;54618;52.018;5.576;2022-11-15T05:15:02;5.97;;;3.80;;
67819;SDS011;54618;52.018;5.576;2022-11-15T05:17:28;5.57;;;3.85;;
67819;SDS011;54618;52.018;5.576;2022-11-15T05:19:54;6.80;;;4.07;;
67819;SDS011;54618;52.018;5.576;2022-11-15T05:22:19;6.05;;;4.10;;
67819;SDS011;54618;52.018;5.576;2022-11-15T05:24:45;6.97;;;4.10;;
67819;SDS011;54618;52.018;5.576;2022-11-15T05:27:10;5.55;;;3.50;;
67819;SDS011;54618;52.018;5.576;2022-11-15T05:29:36;5.50;;;3.65;;
67819;SDS011;54618;52.018;5.576;2022-11-15T05:32:03;6.32;;;3.90;;
67819;SDS011;54618;52.018;5.576;2022-11-15T05:34:30;5.75;;;3.60;;
67819;SDS011;54618;52.018;5.576;2022-11-15T05:36:55;7.13;;;3.67;;
67819;SDS011;54618;52.018;5.576;2022-11-15T05:39:21;5.75;;;3.95;;
67819;SDS011;54618;52.018;5.576;2022-11-15T05:41:54;6.82;;;3.88;;
67819;SDS011;54618;52.018;5.576;2022-11-15T05:44:26;6.97;;;3.80;;
67819;SDS011;54618;52.018;5.576;2022-11-15T05:46:52;5.80;;;3.60;;
67819;SDS011;54618;52.018;5.576;2022-11-15T05:49:21;7.07;;;4.00;;
67819;SDS011;54618;52.018;5.576;2022-11-15T05:51:50;6.18;;;3.92;;
67819;SDS011;54618;52.018;5.576;2022-11-15T05:54:17;7.03;;;4.22;;
67819;SDS011;54618;52.018;5.576;2022-11-15T05:56:44;6.97;;;4.18;;
67819;SDS011;54618;52.018;5.576;2022-11-15T05:59:10;6.15;;;3.78;;
67819;SDS011;54618;52.018;5.576;2022-11-15T06:01:36;5.97;;;3.80;;
67819;SDS011;54618;52.018;5.576;2022-11-15T06:04:03;5.35;;;3.47;;
67819;SDS011;54618;52.018;5.576;2022-11-15T06:06:29;5.75;;;3.35;;
67819;SDS011;54618;52.018;5.576;2022-11-15T06:08:54;4.85;;;3.45;;
67819;SDS011;54618;52.018;5.576;2022-11-15T06:11:20;6.05;;;3.63;;
67819;SDS011;54618;52.018;5.576;2022-11-15T06:13:45;5.53;;;3.63;;
67819;SDS011;54618;52.018;5.576;2022-11-15T06:16:11;5.40;;;3.33;;
67819;SDS011;54618;52.018;5.576;2022-11-15T06:18:36;6.15;;;3.72;;
67819;SDS011;54618;52.018;5.576;2022-11-15T06:21:02;6.53;;;4.00;;
67819;SDS011;54618;52.018;5.576;2022-11-15T06:23:31;5.38;;;3.83;;
67819;SDS011;54618;52.018;5.576;2022-11-15T06:25:58;5.63;;;3.63;;
67819;SDS011;54618;52.018;5.576;2022-11-15T06:28:24;6.07;;;3.80;;
67819;SDS011;54618;52.018;5.576;2022-11-15T06:30:49;6.60;;;3.83;;
67819;SDS011;54618;52.018;5.576;2022-11-15T06:33:15;6.70;;;3.85;;
67819;SDS011;54618;52.018;5.576;2022-11-15T06:35:40;5.93;;;3.60;;
67819;SDS011;54618;52.018;5.576;2022-11-15T06:38:07;5.80;;;3.70;;
67819;SDS011;54618;52.018;5.576;2022-11-15T06:40:34;6.25;;;3.75;;
67819;SDS011;54618;52.018;5.576;2022-11-15T06:43:01;6.40;;;3.70;;
67819;SDS011;54618;52.018;5.576;2022-11-15T06:45:28;5.90;;;3.83;;
67819;SDS011;54618;52.018;5.576;2022-11-15T06:47:53;6.57;;;3.50;;
67819;SDS011;54618;52.018;5.576;2022-11-15T06:50:19;5.82;;;3.75;;
67819;SDS011;54618;52.018;5.576;2022-11-15T06:52:44;6.75;;;3.90;;
67819;SDS011;54618;52.018;5.576;2022-11-15T06:55:10;5.10;;;3.50;;
67819;SDS011;54618;52.018;5.576;2022-11-15T06:57:36;7.03;;;3.80;;
67819;SDS011;54618;52.018;5.576;2022-11-15T07:00:04;6.72;;;3.90;;
67819;SDS011;54618;52.018;5.576;2022-11-15T07:02:30;6.43;;;4.10;;
67819;SDS011;54618;52.018;5.576;2022-11-15T07:04:56;5.85;;;3.50;;
67819;SDS011;54618;52.018;5.576;2022-11-15T07:07:22;5.68;;;3.63;;
67819;SDS011;54618;52.018;5.576;2022-11-15T07:09:47;5.88;;;3.63;;
67819;SDS011;54618;52.018;5.576;2022-11-15T07:12:13;5.43;;;3.70;;
67819;SDS011;54618;52.018;5.576;2022-11-15T07:14:38;5.68;;;3.72;;
67819;SDS011;54618;52.018;5.576;2022-11-15T07:17:04;5.93;;;3.90;;
67819;SDS011;54618;52.018;5.576;2022-11-15T07:19:30;6.15;;;3.58;;
67819;SDS011;54618;52.018;5.576;2022-11-15T07:21:56;8.02;;;3.90;;
67819;SDS011;54618;52.018;5.576;2022-11-15T07:24:22;5.88;;;3.20;;
67819;SDS011;54618;52.018;5.576;2022-11-15T07:26:48;7.00;;;3.55;;
67819;SDS011;54618;52.018;5.576;2022-11-15T07:29:13;7.50;;;3.40;;
67819;SDS011;54618;52.018;5.576;2022-11-15T07:31:39;5.20;;;3.30;;
67819;SDS011;54618;52.018;5.576;2022-11-15T07:34:04;5.47;;;3.40;;
67819;SDS011;54618;52.018;5.576;2022-11-15T07:36:30;6.78;;;3.90;;
67819;SDS011;54618;52.018;5.576;2022-11-15T07:38:56;6.82;;;3.65;;
67819;SDS011;54618;52.018;5.576;2022-11-15T07:41:21;6.15;;;3.50;;
67819;SDS011;54618;52.018;5.576;2022-11-15T07:43:47;4.93;;;3.50;;
67819;SDS011;54618;52.018;5.576;2022-11-15T07:46:15;6.43;;;3.47;;
67819;SDS011;54618;52.018;5.576;2022-11-15T07:48:41;5.88;;;3.42;;
67819;SDS011;54618;52.018;5.576;2022-11-15T07:51:06;5.47;;;3.40;;
67819;SDS011;54618;52.018;5.576;2022-11-15T07:53:35;5.93;;;3.65;;
67819;SDS011;54618;52.018;5.576;2022-11-15T07:56:00;5.50;;;3.30;;
67819;SDS011;54618;52.018;5.576;2022-11-15T07:58:26;4.60;;;3.08;;
67819;SDS011;54618;52.018;5.576;2022-11-15T08:00:51;5.30;;;3.50;;
67819;SDS011;54618;52.018;5.576;2022-11-15T08:03:17;6.72;;;3.50;;
67819;SDS011;54618;52.018;5.576;2022-11-15T08:05:43;5.40;;;3.40;;
67819;SDS011;54618;52.018;5.576;2022-11-15T08:08:14;4.72;;;3.33;;
67819;SDS011;54618;52.018;5.576;2022-11-15T08:10:40;5.43;;;3.35;;
67819;SDS011;54618;52.018;5.576;2022-11-15T08:13:06;5.25;;;3.65;;
67819;SDS011;54618;52.018;5.576;2022-11-15T08:15:34;5.38;;;3.17;;
67819;SDS011;54618;52.018;5.576;2022-11-15T08:18:01;6.72;;;3.40;;
67819;SDS011;54618;52.018;5.576;2022-11-15T08:20:34;6.03;;;3.40;;
67819;SDS011;54618;52.018;5.576;2022-11-15T08:23:01;6.22;;;3.45;;
67819;SDS011;54618;52.018;5.576;2022-11-15T08:25:29;5.70;;;3.03;;
67819;SDS011;54618;52.018;5.576;2022-11-15T08:27:57;4.88;;;3.00;;
67819;SDS011;54618;52.018;5.576;2022-11-15T08:30:24;4.82;;;3.20;;
67819;SDS011;54618;52.018;5.576;2022-11-15T08:32:51;5.18;;;3.00;;
67819;SDS011;54618;52.018;5.576;2022-11-15T08:35:18;6.40;;;3.33;;
67819;SDS011;54618;52.018;5.576;2022-11-15T08:37:44;4.35;;;2.90;;
67819;SDS011;54618;52.018;5.576;2022-11-15T08:40:10;6.07;;;3.30;;
67819;SDS011;54618;52.018;5.576;2022-11-15T08:42:36;4.95;;;3.38;;
67819;SDS011;54618;52.018;5.576;2022-11-15T08:45:02;5.53;;;3.10;;
67819;SDS011;54618;52.018;5.576;2022-11-15T08:47:28;4.97;;;3.13;;
67819;SDS011;54618;52.018;5.576;2022-11-15T08:49:54;4.85;;;3.00;;
67819;SDS011;54618;52.018;5.576;2022-11-15T08:52:19;5.78;;;3.35;;
67819;SDS011;54618;52.018;5.576;2022-11-15T08:54:45;6.68;;;3.42;;
67819;SDS011;54618;52.018;5.576;2022-11-15T08:57:11;5.55;;;3.28;;
67819;SDS011;54618;52.018;5.576;2022-11-15T08:59:37;4.85;;;2.90;;
67819;SDS011;54618;52.018;5.576;2022-11-15T09:02:02;5.13;;;3.30;;
67819;SDS011;54618;52.018;5.576;2022-11-15T09:04:28;5.47;;;3.33;;
67819;SDS011;54618;52.018;5.576;2022-11-15T09:06:54;4.60;;;3.17;;
67819;SDS011;54618;52.018;5.576;2022-11-15T09:09:20;4.20;;;2.95;;
67819;SDS011;54618;52.018;5.576;2022-11-15T09:11:45;4.95;;;3.10;;
67819;SDS011;54618;52.018;5.576;2022-11-15T09:14:11;4.70;;;3.10;;
67819;SDS011;54618;52.018;5.576;2022-11-15T09:16:37;6.18;;;3.22;;
67819;SDS011;54618;52.018;5.576;2022-11-15T09:19:03;5.13;;;3.00;;
67819;SDS011;54618;52.018;5.576;2022-11-15T09:21:28;4.82;;;2.92;;
67819;SDS011;54618;52.018;5.576;2022-11-15T09:23:55;3.88;;;2.75;;
67819;SDS011;54618;52.018;5.576;2022-11-15T09:26:21;5.00;;;2.97;;
67819;SDS011;54618;52.018;5.576;2022-11-15T09:28:46;5.85;;;3.30;;
67819;SDS011;54618;52.018;5.576;2022-11-15T09:31:12;5.75;;;3.10;;
67819;SDS011;54618;52.018;5.576;2022-11-15T09:33:38;6.53;;;3.20;;
67819;SDS011;54618;52.018;5.576;2022-11-15T09:36:05;6.25;;;3.33;;
67819;SDS011;54618;52.018;5.576;2022-11-15T09:38:32;6.00;;;3.55;;
67819;SDS011;54618;52.018;5.576;2022-11-15T09:41:08;7.65;;;3.97;;
67819;SDS011;54618;52.018;5.576;2022-11-15T09:46:29;8.25;;;3.38;;
67819;SDS011;54618;52.018;5.576;2022-11-15T09:49:16;6.38;;;3.53;;
67819;SDS011;54618;52.018;5.576;2022-11-15T09:51:43;6.50;;;3.42;;
67819;SDS011;54618;52.018;5.576;2022-11-15T09:56:43;6.35;;;3.67;;
67819;SDS011;54618;52.018;5.576;2022-11-15T09:59:27;5.90;;;3.10;;
67819;SDS011;54618;52.018;5.576;2022-11-15T10:05:00;5.20;;;3.45;;
67819;SDS011;54618;52.018;5.576;2022-11-15T10:07:28;5.18;;;3.33;;
67819;SDS011;54618;52.018;5.576;2022-11-15T10:10:25;5.53;;;2.92;;
67819;SDS011;54618;52.018;5.576;2022-11-15T10:12:48;4.97;;;2.83;;
67819;SDS011;54618;52.018;5.576;2022-11-15T10:15:16;6.63;;;3.00;;
67819;SDS011;54618;52.018;5.576;2022-11-15T10:20:47;4.82;;;2.88;;
67819;SDS011;54618;52.018;5.576;2022-11-15T10:23:18;4.18;;;2.80;;
67819;SDS011;54618;52.018;5.576;2022-11-15T10:25:46;5.22;;;2.83;;
67819;SDS011;54618;52.018;5.576;2022-11-15T10:28:22;4.28;;;2.75;;
67819;SDS011;54618;52.018;5.576;2022-11-15T10:30:54;5.70;;;2.90;;
67819;SDS011;54618;52.018;5.576;2022-11-15T10:35:53;4.53;;;2.78;;
67819;SDS011;54618;52.018;5.576;2022-11-15T10:46:32;4.78;;;2.40;;
67819;SDS011;54618;52.018;5.576;2022-11-15T10:49:18;4.13;;;2.22;;
67819;SDS011;54618;52.018;5.576;2022-11-15T10:51:49;3.55;;;2.08;;
67819;SDS011;54618;52.018;5.576;2022-11-15T10:54:23;3.08;;;1.90;;
67819;SDS011;54618;52.018;5.576;2022-11-15T10:57:04;4.65;;;2.42;;
67819;SDS011;54618;52.018;5.576;2022-11-15T10:59:35;6.47;;;2.50;;
67819;SDS011;54618;52.018;5.576;2022-11-15T11:02:02;3.28;;;2.05;;
67819;SDS011;54618;52.018;5.576;2022-11-15T11:04:51;4.18;;;2.28;;
67819;SDS011;54618;52.018;5.576;2022-11-15T11:07:21;3.72;;;2.10;;
67819;SDS011;54618;52.018;5.576;2022-11-15T11:09:56;4.25;;;2.13;;
67819;SDS011;54618;52.018;5.576;2022-11-15T11:12:27;4.18;;;2.20;;
67819;SDS011;54618;52.018;5.576;2022-11-15T11:14:56;4.13;;;1.85;;
67819;SDS011;54618;52.018;5.576;2022-11-15T11:17:28;3.50;;;1.70;;
67819;SDS011;54618;52.018;5.576;2022-11-15T11:23:15;2.70;;;1.70;;
67819;SDS011;54618;52.018;5.576;2022-11-15T11:25:49;3.15;;;1.85;;
67819;SDS011;54618;52.018;5.576;2022-11-15T11:34:21;4.15;;;1.63;;
67819;SDS011;54618;52.018;5.576;2022-11-15T11:36:57;2.50;;;1.48;;
67819;SDS011;54618;52.018;5.576;2022-11-15T11:39:51;4.00;;;1.50;;
67819;SDS011;54618;52.018;5.576;2022-11-15T11:45:19;3.88;;;1.75;;
67819;SDS011;54618;52.018;5.576;2022-11-15T11:51:05;3.33;;;1.58;;
67819;SDS011;54618;52.018;5.576;2022-11-15T11:53:58;3.78;;;1.52;;
67819;SDS011;54618;52.018;5.576;2022-11-15T11:56:34;2.45;;;1.33;;
67819;SDS011;54618;52.018;5.576;2022-11-15T11:59:15;4.13;;;1.40;;
67819;SDS011;54618;52.018;5.576;2022-11-15T12:01:54;3.53;;;1.33;;
67819;SDS011;54618;52.018;5.576;2022-11-15T12:04:27;2.72;;;1.20;;
67819;SDS011;54618;52.018;5.576;2022-11-15T12:07:03;3.05;;;1.38;;
67819;SDS011;54618;52.018;5.576;2022-11-15T12:09:44;2.42;;;1.20;;
67819;SDS011;54618;52.018;5.576;2022-11-15T12:15:11;3.35;;;1.20;;
67819;SDS011;54618;52.018;5.576;2022-11-15T12:17:41;3.10;;;1.20;;
67819;SDS011;54618;52.018;5.576;2022-11-15T12:20:20;3.50;;;1.20;;
67819;SDS011;54618;52.018;5.576;2022-11-15T12:22:56;4.18;;;1.33;;
67819;SDS011;54618;52.018;5.576;2022-11-15T12:26:00;2.60;;;1.10;;
67819;SDS011;54618;52.018;5.576;2022-11-15T12:31:14;2.97;;;1.10;;
67819;SDS011;54618;52.018;5.576;2022-11-15T12:33:43;3.95;;;1.20;;
67819;SDS011;54618;52.018;5.576;2022-11-15T12:41:17;3.50;;;1.10;;
67819;SDS011;54618;52.018;5.576;2022-11-15T12:43:44;3.55;;;1.15;;
67819;SDS011;54618;52.018;5.576;2022-11-15T12:46:12;3.33;;;1.10;;
67819;SDS011;54618;52.018;5.576;2022-11-15T12:57:35;2.13;;;0.90;;
67819;SDS011;54618;52.018;5.576;2022-11-15T12:59:53;3.38;;;1.30;;
67819;SDS011;54618;52.018;5.576;2022-11-15T13:07:54;3.70;;;1.10;;
67819;SDS011;54618;52.018;5.576;2022-11-15T13:10:30;3.05;;;1.15;;
67819;SDS011;54618;52.018;5.576;2022-11-15T13:13:02;2.25;;;1.02;;
67819;SDS011;54618;52.018;5.576;2022-11-15T13:15:39;2.95;;;0.90;;
67819;SDS011;54618;52.018;5.576;2022-11-15T13:21:00;5.05;;;1.40;;
67819;SDS011;54618;52.018;5.576;2022-11-15T13:23:51;3.78;;;1.02;;
67819;SDS011;54618;52.018;5.576;2022-11-15T13:26:20;3.85;;;1.10;;
67819;SDS011;54618;52.018;5.576;2022-11-15T13:28:50;3.58;;;1.20;;
67819;SDS011;54618;52.018;5.576;2022-11-15T13:33:44;3.03;;;1.02;;
67819;SDS011;54618;52.018;5.576;2022-11-15T13:36:21;2.40;;;1.00;;
67819;SDS011;54618;52.018;5.576;2022-11-15T13:38:58;3.78;;;1.00;;
67819;SDS011;54618;52.018;5.576;2022-11-15T13:41:26;2.10;;;0.80;;
67819;SDS011;54618;52.018;5.576;2022-11-15T13:43:54;3.08;;;1.10;;
67819;SDS011;54618;52.018;5.576;2022-11-15T13:48:52;4.03;;;1.08;;
67819;SDS011;54618;52.018;5.576;2022-11-15T13:51:25;4.50;;;0.98;;
67819;SDS011;54618;52.018;5.576;2022-11-15T13:56:52;2.65;;;0.80;;
67819;SDS011;54618;52.018;5.576;2022-11-15T14:01:49;2.28;;;0.80;;
67819;SDS011;54618;52.018;5.576;2022-11-15T14:04:18;4.05;;;0.90;;
67819;SDS011;54618;52.018;5.576;2022-11-15T14:06:47;3.47;;;1.10;;
67819;SDS011;54618;52.018;5.576;2022-11-15T14:12:00;5.30;;;1.02;;
67819;SDS011;54618;52.018;5.576;2022-11-15T14:14:28;2.75;;;0.88;;
67819;SDS011;54618;52.018;5.576;2022-11-15T14:16:55;3.05;;;0.80;;
67819;SDS011;54618;52.018;5.576;2022-11-15T14:24:33;4.80;;;0.90;;
67819;SDS011;54618;52.018;5.576;2022-11-15T14:30:00;3.78;;;0.98;;
67819;SDS011;54618;52.018;5.576;2022-11-15T14:32:29;6.00;;;1.00;;
67819;SDS011;54618;52.018;5.576;2022-11-15T14:35:11;2.53;;;0.88;;
67819;SDS011;54618;52.018;5.576;2022-11-15T14:37:43;2.92;;;0.90;;
67819;SDS011;54618;52.018;5.576;2022-11-15T14:40:11;9.70;;;1.15;;
67819;SDS011;54618;52.018;5.576;2022-11-15T14:42:39;4.93;;;0.93;;
67819;SDS011;54618;52.018;5.576;2022-11-15T14:45:09;1.85;;;0.82;;
67819;SDS011;54618;52.018;5.576;2022-11-15T14:47:45;3.53;;;0.85;;
67819;SDS011;54618;52.018;5.576;2022-11-15T14:50:18;2.08;;;0.80;;
67819;SDS011;54618;52.018;5.576;2022-11-15T14:52:45;2.63;;;1.00;;
67819;SDS011;54618;52.018;5.576;2022-11-15T14:55:18;3.13;;;0.90;;
67819;SDS011;54618;52.018;5.576;2022-11-15T14:57:58;2.00;;;0.70;;
67819;SDS011;54618;52.018;5.576;2022-11-15T15:00:24;3.33;;;0.80;;
67819;SDS011;54618;52.018;5.576;2022-11-15T15:02:50;3.25;;;1.02;;
67819;SDS011;54618;52.018;5.576;2022-11-15T15:05:19;1.48;;;0.77;;
67819;SDS011;54618;52.018;5.576;2022-11-15T15:07:48;3.15;;;0.90;;
67819;SDS011;54618;52.018;5.576;2022-11-15T15:10:14;2.88;;;0.93;;
67819;SDS011;54618;52.018;5.576;2022-11-15T15:12:41;3.10;;;0.80;;
67819;SDS011;54618;52.018;5.576;2022-11-15T15:15:14;2.40;;;0.80;;
67819;SDS011;54618;52.018;5.576;2022-11-15T15:17:46;2.80;;;1.20;;
67819;SDS011;54618;52.018;5.576;2022-11-15T15:20:12;6.10;;;1.20;;
67819;SDS011;54618;52.018;5.576;2022-11-15T15:22:37;2.15;;;0.80;;
67819;SDS011;54618;52.018;5.576;2022-11-15T15:25:08;4.35;;;0.90;;
67819;SDS011;54618;52.018;5.576;2022-11-15T15:27:46;1.98;;;0.80;;
67819;SDS011;54618;52.018;5.576;2022-11-15T15:30:11;3.15;;;0.93;;
67819;SDS011;54618;52.018;5.576;2022-11-15T15:32:37;2.85;;;0.80;;
67819;SDS011;54618;52.018;5.576;2022-11-15T15:35:03;2.35;;;0.95;;
67819;SDS011;54618;52.018;5.576;2022-11-15T15:37:28;5.22;;;0.98;;
67819;SDS011;54618;52.018;5.576;2022-11-15T15:39:57;4.15;;;1.00;;
67819;SDS011;54618;52.018;5.576;2022-11-15T15:42:23;3.53;;;0.95;;
67819;SDS011;54618;52.018;5.576;2022-11-15T15:44:49;3.70;;;1.00;;
67819;SDS011;54618;52.018;5.576;2022-11-15T15:47:17;2.95;;;0.80;;
67819;SDS011;54618;52.018;5.576;2022-11-15T15:49:44;4.57;;;0.77;;
67819;SDS011;54618;52.018;5.576;2022-11-15T15:52:10;3.20;;;0.90;;
67819;SDS011;54618;52.018;5.576;2022-11-15T15:54:36;4.82;;;0.90;;
67819;SDS011;54618;52.018;5.576;2022-11-15T15:57:02;6.32;;;1.30;;
67819;SDS011;54618;52.018;5.576;2022-11-15T15:59:28;2.55;;;0.77;;
67819;SDS011;54618;52.018;5.576;2022-11-15T16:01:54;2.47;;;0.82;;
67819;SDS011;54618;52.018;5.576;2022-11-15T16:04:19;5.93;;;0.90;;
67819;SDS011;54618;52.018;5.576;2022-11-15T16:06:45;2.63;;;0.88;;
67819;SDS011;54618;52.018;5.576;2022-11-15T16:09:14;2.78;;;0.75;;
67819;SDS011;54618;52.018;5.576;2022-11-15T16:11:41;4.83;;;1.03;;
67819;SDS011;54618;52.018;5.576;2022-11-15T16:14:07;4.38;;;0.90;;
67819;SDS011;54618;52.018;5.576;2022-11-15T16:16:33;2.58;;;1.00;;
67819;SDS011;54618;52.018;5.576;2022-11-15T16:18:59;2.42;;;0.95;;
67819;SDS011;54618;52.018;5.576;2022-11-15T16:21:26;3.88;;;1.00;;
67819;SDS011;54618;52.018;5.576;2022-11-15T16:23:52;1.35;;;0.70;;
67819;SDS011;54618;52.018;5.576;2022-11-15T16:26:22;2.55;;;0.80;;
67819;SDS011;54618;52.018;5.576;2022-11-15T16:28:50;2.83;;;0.90;;
67819;SDS011;54618;52.018;5.576;2022-11-15T16:31:16;3.78;;;0.90;;
67819;SDS011;54618;52.018;5.576;2022-11-15T16:33:43;3.03;;;1.13;;
67819;SDS011;54618;52.018;5.576;2022-11-15T16:38:48;1.85;;;0.70;;
67819;SDS011;54618;52.018;5.576;2022-11-15T16:41:14;3.45;;;0.88;;
67819;SDS011;54618;52.018;5.576;2022-11-15T16:43:43;4.90;;;0.90;;
67819;SDS011;54618;52.018;5.576;2022-11-15T16:46:16;3.03;;;0.93;;
67819;SDS011;54618;52.018;5.576;2022-11-15T16:48:43;3.53;;;1.10;;
67819;SDS011;54618;52.018;5.576;2022-11-15T16:51:09;3.25;;;0.88;;
67819;SDS011;54618;52.018;5.576;2022-11-15T16:53:35;3.13;;;0.80;;
67819;SDS011;54618;52.018;5.576;2022-11-15T16:56:00;4.25;;;1.00;;
67819;SDS011;54618;52.018;5.576;2022-11-15T16:58:26;1.50;;;0.70;;
67819;SDS011;54618;52.018;5.576;2022-11-15T17:00:52;2.65;;;0.80;;
67819;SDS011;54618;52.018;5.576;2022-11-15T17:03:20;1.65;;;0.77;;
67819;SDS011;54618;52.018;5.576;2022-11-15T17:05:46;3.50;;;0.90;;
67819;SDS011;54618;52.018;5.576;2022-11-15T17:08:11;3.55;;;1.00;;
67819;SDS011;54618;52.018;5.576;2022-11-15T17:10:38;1.83;;;0.80;;
67819;SDS011;54618;52.018;5.576;2022-11-15T17:13:10;2.35;;;0.80;;